Time;durP1;ratioP1;P1;durP2;ratioP2;P2;SDS_P1;SDS_P2;PMS_P1;PMS_P2;Temp;Humidity;BMP_temperature;BMP_pressure;BME280_temperature;BME280_humidity;BME280_pressure;Samples;Min_cycle;Max_cycle;Signal;HPM_P1;HPM_P2
2022/11/24 00:01:16;;;;;;;39.50;16.00;;;-0.40;99.90;;;;;;4771468;30;20216;-82
2022/11/24 00:03:45;;;;;;;41.40;16.60;;;-0.40;99.90;;;;;;4771405;30;20279;-83
2022/11/24 00:06:13;;;;;;;42.03;16.63;;;-0.50;99.90;;;;;;4771633;30;20548;-82
2022/11/24 00:08:43;;;;;;;48.57;16.80;;;-0.60;99.90;;;;;;4771183;30;20202;-84
2022/11/24 00:11:15;;;;;;;40.57;16.07;;;-0.70;99.90;;;;;;4780729;29;20243;-83
2022/11/24 00:13:43;;;;;;;40.80;16.37;;;-0.60;99.90;;;;;;4774388;30;20200;-83
2022/11/24 00:16:15;;;;;;;38.73;15.77;;;-0.60;99.90;;;;;;4774331;30;20222;-86
2022/11/24 00:18:44;;;;;;;36.03;14.93;;;-0.50;99.90;;;;;;4774201;30;20303;-85
2022/11/24 00:21:16;;;;;;;40.90;16.27;;;-0.40;99.90;;;;;;4790376;30;20195;-85
2022/11/24 00:23:47;;;;;;;38.53;15.43;;;-0.50;99.90;;;;;;4774377;30;20263;-84
2022/11/24 00:26:17;;;;;;;40.33;15.63;;;-0.50;99.90;;;;;;4774071;30;20214;-87
2022/11/24 00:28:46;;;;;;;39.27;15.93;;;-0.50;99.90;;;;;;4790841;29;20287;-84
2022/11/24 00:31:30;;;;;;;41.93;16.80;;;-0.40;99.90;;;;;;4773616;30;20293;-83
2022/11/24 00:34:00;;;;;;;41.03;16.43;;;-0.40;99.90;;;;;;4773868;30;20227;-84
2022/11/24 00:36:29;;;;;;;42.47;15.40;;;-0.40;99.90;;;;;;4774491;30;20635;-83
2022/11/24 00:38:58;;;;;;;41.50;15.80;;;-0.50;99.90;;;;;;4775962;30;20219;-84
2022/11/24 00:41:26;;;;;;;41.43;15.87;;;-0.50;99.90;;;;;;4789877;29;20197;-84
2022/11/24 00:43:54;;;;;;;38.67;15.60;;;-0.60;99.90;;;;;;4774177;30;20211;-85
2022/11/24 00:46:22;;;;;;;36.47;14.73;;;-0.50;99.90;;;;;;4773856;30;20301;-83
2022/11/24 00:48:49;;;;;;;39.87;15.67;;;-0.60;99.90;;;;;;4773414;30;20261;-82
2022/11/24 00:51:18;;;;;;;36.93;14.53;;;-0.50;99.90;;;;;;4758920;30;20591;-82
2022/11/24 00:53:45;;;;;;;40.53;15.77;;;-0.50;99.90;;;;;;4773502;30;20244;-82
2022/11/24 00:56:12;;;;;;;39.37;15.77;;;-0.50;99.90;;;;;;4773362;30;20199;-81
2022/11/24 00:58:39;;;;;;;39.03;15.60;;;-0.60;99.90;;;;;;4773992;30;20207;-84
2022/11/24 01:01:09;;;;;;;38.03;15.10;;;-0.50;99.90;;;;;;4774055;30;20239;-82
2022/11/24 01:03:36;;;;;;;37.17;15.23;;;-0.50;99.90;;;;;;4773388;30;20227;-80
2022/11/24 01:06:12;;;;;;;39.17;14.70;;;-0.60;99.90;;;;;;4773156;30;20207;-85
2022/11/24 01:08:40;;;;;;;38.13;15.33;;;-0.50;99.90;;;;;;4773292;30;20265;-80
2022/11/24 01:11:16;;;;;;;38.63;14.57;;;-0.60;99.90;;;;;;4789339;29;20324;-84
2022/11/24 01:13:46;;;;;;;40.17;14.13;;;-0.60;99.90;;;;;;4789690;30;20202;-80
2022/11/24 01:16:24;;;;;;;37.73;15.03;;;-0.50;99.90;;;;;;4772981;30;20217;-80
2022/11/24 01:18:53;;;;;;;37.03;14.10;;;-0.50;99.90;;;;;;4789642;29;20220;-81
2022/11/24 01:21:21;;;;;;;36.43;14.70;;;-0.50;99.90;;;;;;4789239;30;20299;-88
2022/11/24 01:23:48;;;;;;;38.17;14.70;;;-0.40;99.90;;;;;;4773533;30;20204;-87
2022/11/24 01:26:17;;;;;;;38.67;14.83;;;-0.40;99.90;;;;;;4776316;30;20225;-79
2022/11/24 01:28:45;;;;;;;38.10;15.10;;;-0.40;99.90;;;;;;4773674;30;20202;-85
2022/11/24 01:31:14;;;;;;;36.80;15.37;;;-0.40;99.90;;;;;;4773462;30;20220;-80
2022/11/24 01:33:42;;;;;;;37.97;14.93;;;-0.40;99.90;;;;;;4773275;30;20208;-76
2022/11/24 01:36:09;;;;;;;39.00;15.40;;;-0.40;99.90;;;;;;4789435;29;20947;-78
2022/11/24 01:38:35;;;;;;;38.27;15.27;;;-0.50;99.90;;;;;;4773075;30;20217;-80
2022/11/24 01:41:11;;;;;;;38.57;15.03;;;-0.50;99.90;;;;;;4758264;29;20644;-81
2022/11/24 01:43:39;;;;;;;42.70;16.00;;;-0.50;99.90;;;;;;4772390;30;20219;-86
2022/11/24 01:46:31;;;;;;;40.13;15.83;;;-0.50;99.90;;;;;;4789898;29;20215;-80
2022/11/24 01:49:21;;;;;;;41.97;15.83;;;-0.50;99.90;;;;;;4791139;29;20236;-82
2022/11/24 01:52:00;;;;;;;45.97;15.97;;;-0.60;99.90;;;;;;4790538;29;20220;-85
2022/11/24 01:54:28;;;;;;;45.90;17.33;;;-0.70;99.90;;;;;;4792349;29;20216;-80
2022/11/24 01:57:01;;;;;;;43.93;16.53;;;-0.70;99.90;;;;;;4808388;29;20196;-85
2022/11/24 01:59:28;;;;;;;44.63;16.27;;;-0.70;99.90;;;;;;4806808;29;20306;-84
2022/11/24 02:01:58;;;;;;;47.13;17.47;;;-0.80;99.90;;;;;;4807679;29;20270;-85
2022/11/24 02:04:29;;;;;;;46.53;17.40;;;-0.70;99.90;;;;;;4807075;29;20219;-85
2022/11/24 02:06:58;;;;;;;48.67;17.83;;;-0.80;99.90;;;;;;4807031;29;20567;-84
2022/11/24 02:09:41;;;;;;;45.03;16.60;;;-0.70;99.90;;;;;;4806031;29;20674;-83
2022/11/24 02:12:09;;;;;;;44.77;15.50;;;-0.60;99.90;;;;;;4790883;29;20261;-83
2022/11/24 02:14:38;;;;;;;45.20;15.97;;;-0.60;99.90;;;;;;4807246;29;20729;-86
2022/11/24 02:17:05;;;;;;;44.23;16.70;;;-0.50;99.90;;;;;;4807338;29;20201;-86
2022/11/24 02:19:39;;;;;;;41.40;15.47;;;-0.60;99.90;;;;;;4805611;29;20281;-78
2022/11/24 02:22:43;;;;;;;43.63;15.73;;;-0.60;99.90;;;;;;4806832;29;20220;-78
2022/11/24 02:25:38;;;;;;;35.70;14.87;;;-0.50;99.90;;;;;;4804997;29;20855;-76
2022/11/24 02:28:11;;;;;;;36.87;14.90;;;-0.60;99.90;;;;;;4789928;29;20213;-76
2022/11/24 02:30:38;;;;;;;37.37;13.57;;;-0.60;99.90;;;;;;4805080;29;20209;-80
2022/11/24 02:33:07;;;;;;;32.30;13.37;;;-0.60;99.90;;;;;;4790032;29;20238;-78
2022/11/24 02:35:34;;;;;;;34.53;13.00;;;-0.60;99.90;;;;;;4804997;29;20205;-80
2022/11/24 02:38:00;;;;;;;29.67;12.13;;;-0.60;99.90;;;;;;4806218;29;20227;-80
2022/11/24 02:40:29;;;;;;;29.97;11.67;;;-0.60;99.90;;;;;;4789767;29;20684;-79
2022/11/24 02:43:05;;;;;;;29.93;12.90;;;-0.60;99.90;;;;;;4804568;29;20206;-78
2022/11/24 02:45:32;;;;;;;29.30;11.67;;;-0.60;99.90;;;;;;4804554;29;20220;-77
2022/11/24 02:47:59;;;;;;;28.57;12.03;;;-0.60;99.90;;;;;;4804917;29;20267;-81
2022/11/24 02:50:26;;;;;;;28.67;11.67;;;-0.50;99.90;;;;;;4806047;29;20506;-81
2022/11/24 02:52:53;;;;;;;25.30;11.27;;;-0.60;99.90;;;;;;4789544;29;20319;-84
2022/11/24 02:55:20;;;;;;;27.77;11.20;;;-0.50;99.90;;;;;;4805923;29;20506;-82
2022/11/24 02:57:47;;;;;;;28.60;11.93;;;-0.50;99.90;;;;;;4789578;29;20201;-79
2022/11/24 03:00:15;;;;;;;25.90;10.53;;;-0.50;99.90;;;;;;4789596;29;20209;-79
2022/11/24 03:02:42;;;;;;;26.60;11.00;;;-0.50;99.90;;;;;;4789615;29;20257;-81
2022/11/24 03:05:10;;;;;;;23.93;11.03;;;-0.50;99.90;;;;;;4789532;29;20256;-84
2022/11/24 03:07:37;;;;;;;23.50;10.40;;;-0.40;99.90;;;;;;4789673;29;20219;-83
2022/11/24 03:10:05;;;;;;;27.43;11.20;;;-0.50;99.90;;;;;;4805845;29;20564;-85
2022/11/24 03:12:32;;;;;;;27.47;11.07;;;-0.40;99.90;;;;;;4791800;29;20688;-77
2022/11/24 03:14:59;;;;;;;25.43;11.10;;;-0.40;99.90;;;;;;4793630;29;20211;-76
2022/11/24 03:17:26;;;;;;;26.80;11.30;;;-0.40;99.90;;;;;;4807759;29;20210;-77
2022/11/24 03:19:53;;;;;;;26.27;11.23;;;-0.40;99.90;;;;;;4805901;29;20292;-80
2022/11/24 03:22:20;;;;;;;24.83;10.40;;;-0.40;99.90;;;;;;4789614;29;20294;-79
2022/11/24 03:24:49;;;;;;;25.70;11.20;;;-0.40;99.90;;;;;;4789459;29;20427;-80
2022/11/24 03:27:16;;;;;;;26.07;11.07;;;-0.40;99.90;;;;;;4805562;29;20281;-83
2022/11/24 03:29:43;;;;;;;27.40;11.17;;;-0.30;99.90;;;;;;4789400;29;20212;-80
2022/11/24 03:32:10;;;;;;;24.47;10.80;;;-0.40;99.90;;;;;;4789737;29;20227;-81
2022/11/24 03:34:36;;;;;;;24.57;10.33;;;-0.30;99.90;;;;;;4804643;29;20207;-80
2022/11/24 03:37:03;;;;;;;26.30;10.77;;;-0.40;99.90;;;;;;4808709;29;20287;-78
2022/11/24 03:39:30;;;;;;;23.30;10.43;;;-0.40;99.90;;;;;;4804592;29;20302;-85
2022/11/24 03:41:57;;;;;;;23.60;10.60;;;-0.50;99.90;;;;;;4790858;29;20220;-84
2022/11/24 03:44:24;;;;;;;23.60;10.43;;;-0.40;99.90;;;;;;4806190;29;20207;-80
2022/11/24 03:46:51;;;;;;;23.50;9.97;;;-0.40;99.90;;;;;;4791224;29;20204;-79
2022/11/24 03:49:18;;;;;;;24.27;10.03;;;-0.50;99.90;;;;;;4789968;29;20214;-85
2022/11/24 03:51:47;;;;;;;22.90;10.03;;;-0.40;99.90;;;;;;4805432;29;20254;-87
2022/11/24 03:54:14;;;;;;;20.90;9.40;;;-0.50;99.90;;;;;;4789312;29;20215;-88
2022/11/24 03:56:41;;;;;;;24.97;10.43;;;-0.50;99.90;;;;;;4789137;29;20211;-83
2022/11/24 03:59:08;;;;;;;22.37;9.53;;;-0.50;99.90;;;;;;4805581;29;20211;-83
2022/11/24 04:01:35;;;;;;;30.90;11.37;;;-0.40;99.90;;;;;;4774513;29;20563;-79
2022/11/24 04:04:02;;;;;;;24.47;10.40;;;-0.30;99.90;;;;;;4805226;29;20311;-77
2022/11/24 04:06:29;;;;;;;24.60;10.67;;;-0.30;99.90;;;;;;4790484;29;20217;-77
2022/11/24 04:08:56;;;;;;;24.77;10.60;;;-0.30;99.90;;;;;;4807551;29;20307;-77
2022/11/24 04:14:23;;;;;;;26.37;11.10;;;-0.20;99.90;;;;;;4770277;30;20211;-82
2022/11/24 04:16:50;;;;;;;24.13;10.20;;;-0.20;99.90;;;;;;4755252;30;20219;-81
2022/11/24 04:19:17;;;;;;;24.40;10.77;;;-0.30;99.90;;;;;;4770465;30;20210;-81
2022/11/24 04:21:43;;;;;;;23.37;9.93;;;-0.30;99.90;;;;;;4755689;30;20206;-78
2022/11/24 04:24:10;;;;;;;28.03;11.33;;;-0.30;99.90;;;;;;4770646;30;20232;-84
2022/11/24 04:26:37;;;;;;;25.00;10.37;;;-0.30;99.90;;;;;;4771061;30;20653;-84
2022/11/24 04:29:04;;;;;;;25.87;10.77;;;-0.30;99.90;;;;;;4770453;30;20207;-83
2022/11/24 04:31:31;;;;;;;23.27;10.07;;;-0.40;99.90;;;;;;4770423;30;20213;-84
2022/11/24 04:34:01;;;;;;;23.97;10.10;;;-0.30;99.90;;;;;;4755389;30;20230;-84
2022/11/24 04:36:27;;;;;;;22.47;9.63;;;-0.30;99.90;;;;;;4755376;30;20216;-77
2022/11/24 04:38:54;;;;;;;22.70;10.20;;;-0.30;99.90;;;;;;4770315;30;20213;-81
2022/11/24 04:41:41;;;;;;;34.93;11.50;;;-0.30;99.90;;;;;;4770228;30;20294;-81
2022/11/24 04:44:08;;;;;;;25.67;10.27;;;-0.30;99.90;;;;;;4770141;30;20313;-82
2022/11/24 04:46:35;;;;;;;22.27;10.30;;;-0.30;99.90;;;;;;4770209;30;20561;-84
2022/11/24 04:49:02;;;;;;;23.20;10.03;;;-0.30;99.90;;;;;;4773939;29;20261;-83
2022/11/24 04:51:29;;;;;;;28.37;11.33;;;-0.30;99.90;;;;;;4791920;29;20282;-77
2022/11/24 04:53:56;;;;;;;24.77;11.00;;;-0.30;99.90;;;;;;4809134;29;20657;-79
2022/11/24 04:56:23;;;;;;;23.90;10.27;;;-0.30;99.90;;;;;;4808755;29;20199;-80
2022/11/24 04:58:50;;;;;;;24.70;10.30;;;-0.30;99.90;;;;;;4776690;29;20210;-78
2022/11/24 05:01:17;;;;;;;26.17;10.03;;;-0.40;99.90;;;;;;4776586;29;20603;-78
2022/11/24 05:03:44;;;;;;;24.80;10.27;;;-0.30;99.90;;;;;;4792022;29;20242;-84
2022/11/24 05:06:11;;;;;;;23.33;10.17;;;-0.40;99.90;;;;;;4806541;29;20550;-83
2022/11/24 05:08:38;;;;;;;22.57;9.57;;;-0.40;99.90;;;;;;4791768;29;20205;-81
2022/11/24 05:11:05;;;;;;;22.93;10.20;;;-0.40;99.90;;;;;;4791495;29;20367;-83
2022/11/24 05:13:32;;;;;;;22.83;10.10;;;-0.30;99.90;;;;;;4807570;29;20223;-80
2022/11/24 05:16:00;;;;;;;24.73;10.60;;;-0.50;99.90;;;;;;4791498;29;20209;-84
2022/11/24 05:18:27;;;;;;;26.03;11.00;;;-0.40;99.90;;;;;;4791358;29;20207;-84
2022/11/24 05:20:54;;;;;;;24.63;10.70;;;-0.30;99.90;;;;;;4791453;29;20214;-80
2022/11/24 05:23:21;;;;;;;22.57;9.90;;;-0.40;99.90;;;;;;4791866;29;20247;-83
2022/11/24 05:25:48;;;;;;;27.07;10.17;;;-0.30;99.90;;;;;;4805992;29;20582;-85
2022/11/24 05:28:15;;;;;;;25.20;9.60;;;-0.20;99.90;;;;;;4791274;29;20214;-86
2022/11/24 05:30:42;;;;;;;25.80;10.17;;;-0.30;99.90;;;;;;4776517;29;20211;-85
2022/11/24 05:33:21;;;;;;;26.93;9.43;;;-0.30;99.90;;;;;;4797738;29;20248;-81
2022/11/24 05:35:49;;;;;;;24.77;9.20;;;-0.30;99.90;;;;;;4806000;29;20213;-84
2022/11/24 05:38:17;;;;;;;22.70;9.27;;;-0.30;99.90;;;;;;4807408;29;20290;-81
2022/11/24 05:40:44;;;;;;;24.40;10.10;;;-0.40;99.90;;;;;;4805705;29;20210;-81
2022/11/24 05:43:16;;;;;;;23.90;10.30;;;-0.40;99.90;;;;;;4807233;29;20284;-82
2022/11/24 05:45:43;;;;;;;20.37;9.27;;;-0.30;99.90;;;;;;4807159;29;20206;-84
2022/11/24 05:48:13;;;;;;;25.00;10.33;;;-0.30;99.90;;;;;;4807592;29;20218;-83
2022/11/24 05:50:40;;;;;;;24.63;9.93;;;-0.30;99.90;;;;;;4790939;29;20209;-84
2022/11/24 05:53:09;;;;;;;23.30;9.97;;;-0.40;99.90;;;;;;4807481;29;20217;-85
2022/11/24 05:55:37;;;;;;;24.23;9.50;;;-0.30;99.90;;;;;;4807406;29;20260;-82
2022/11/24 05:58:06;;;;;;;25.83;10.27;;;-0.30;99.90;;;;;;4790754;29;20263;-82
2022/11/24 06:00:35;;;;;;;22.93;9.73;;;-0.30;99.90;;;;;;4790868;29;20221;-82
2022/11/24 06:03:02;;;;;;;24.23;9.83;;;-0.20;99.90;;;;;;4805810;29;20241;-83
2022/11/24 06:05:30;;;;;;;21.73;9.23;;;-0.20;99.90;;;;;;4791184;29;20238;-85
2022/11/24 06:07:59;;;;;;;23.10;9.53;;;-0.20;99.90;;;;;;4808198;29;20217;-84
2022/11/24 06:10:26;;;;;;;21.37;9.57;;;-0.20;99.90;;;;;;4807535;29;20238;-84
2022/11/24 06:12:53;;;;;;;22.60;9.60;;;-0.10;99.90;;;;;;4791209;29;20557;-83
2022/11/24 06:15:20;;;;;;;23.37;9.37;;;-0.30;99.90;;;;;;4791141;29;20319;-80
2022/11/24 06:17:54;;;;;;;21.60;9.70;;;-0.20;99.90;;;;;;4796846;29;20199;-80
2022/11/24 06:20:27;;;;;;;20.97;9.27;;;-0.10;99.90;;;;;;4791802;29;20685;-81
2022/11/24 06:22:58;;;;;;;25.63;9.87;;;-0.10;99.90;;;;;;4791651;29;20210;-80
2022/11/24 06:25:26;;;;;;;22.40;9.73;;;-0.10;99.90;;;;;;4807398;29;20204;-80
2022/11/24 06:27:53;;;;;;;22.50;9.50;;;-0.10;99.90;;;;;;4790173;29;20210;-79
2022/11/24 06:30:20;;;;;;;20.27;9.27;;;-0.10;99.90;;;;;;4805922;29;20195;-81
2022/11/24 06:32:47;;;;;;;22.83;9.37;;;0.00;99.90;;;;;;4804748;29;20810;-83
2022/11/24 06:35:16;;;;;;;19.87;9.23;;;0.00;99.90;;;;;;4806101;29;20202;-82
2022/11/24 06:37:44;;;;;;;36.13;12.00;;;0.00;99.90;;;;;;4804888;29;20200;-85
2022/11/24 06:40:11;;;;;;;20.27;9.30;;;0.00;99.90;;;;;;4789936;29;20556;-82
2022/11/24 06:42:38;;;;;;;21.93;9.60;;;0.00;99.90;;;;;;4806049;29;20251;-82
2022/11/24 06:45:05;;;;;;;19.87;9.33;;;0.00;99.90;;;;;;4805771;29;20203;-82
2022/11/24 06:47:36;;;;;;;21.80;9.23;;;0.00;99.90;;;;;;4790343;29;20262;-82
2022/11/24 06:50:03;;;;;;;21.57;9.30;;;0.00;99.90;;;;;;4789505;29;20221;-81
2022/11/24 06:52:30;;;;;;;19.37;8.83;;;0.00;99.90;;;;;;4789935;29;20212;-82
2022/11/24 06:54:57;;;;;;;22.97;9.67;;;0.00;99.90;;;;;;4789584;29;20673;-82
2022/11/24 06:57:25;;;;;;;20.50;8.73;;;0.10;99.90;;;;;;4806009;29;20269;-83
2022/11/24 06:59:51;;;;;;;22.80;9.60;;;0.00;99.90;;;;;;4789630;29;20263;-81
2022/11/24 07:02:18;;;;;;;23.30;9.40;;;0.00;99.90;;;;;;4789568;29;20220;-84
2022/11/24 07:04:45;;;;;;;19.80;9.43;;;0.00;99.90;;;;;;4804437;29;20617;-82
2022/11/24 07:07:12;;;;;;;20.77;9.30;;;0.00;99.90;;;;;;4789637;29;20304;-83
2022/11/24 07:09:39;;;;;;;22.20;9.70;;;0.00;99.90;;;;;;4804441;29;20210;-82
2022/11/24 07:12:06;;;;;;;21.63;9.57;;;0.00;99.90;;;;;;4805790;29;20246;-82
2022/11/24 07:14:33;;;;;;;19.67;8.60;;;0.10;99.90;;;;;;4805565;29;20232;-82
2022/11/24 07:17:01;;;;;;;20.67;9.50;;;0.00;99.90;;;;;;4804266;29;20215;-81
2022/11/24 07:19:28;;;;;;;23.93;9.87;;;0.00;99.90;;;;;;4789249;29;20211;-84
2022/11/24 07:21:56;;;;;;;20.73;9.07;;;0.00;99.90;;;;;;4789958;29;20318;-76
2022/11/24 07:24:23;;;;;;;23.03;9.93;;;0.10;99.90;;;;;;4789681;29;20290;-82
2022/11/24 07:26:50;;;;;;;28.47;10.50;;;0.00;99.90;;;;;;4789501;29;20210;-81
2022/11/24 07:29:17;;;;;;;22.73;10.47;;;0.10;99.90;;;;;;4805691;29;20195;-78
2022/11/24 07:31:44;;;;;;;26.33;10.63;;;0.00;99.90;;;;;;4790225;29;20210;-79
2022/11/24 07:34:14;;;;;;;23.83;10.60;;;0.00;99.90;;;;;;4805325;29;20285;-76
2022/11/24 07:36:41;;;;;;;25.00;11.03;;;0.00;99.90;;;;;;4789739;29;20278;-79
2022/11/24 07:39:08;;;;;;;23.40;11.07;;;0.10;99.90;;;;;;4774946;29;20598;-78
2022/11/24 07:41:35;;;;;;;26.63;11.47;;;0.10;99.90;;;;;;4790683;29;20218;-77
2022/11/24 07:44:02;;;;;;;26.73;10.93;;;0.00;99.90;;;;;;4792490;29;20210;-77
2022/11/24 07:46:29;;;;;;;27.10;11.50;;;-0.10;99.90;;;;;;4792791;29;20214;-79
2022/11/24 07:48:56;;;;;;;29.40;12.03;;;0.00;99.90;;;;;;4792625;29;20213;-76
2022/11/24 07:51:23;;;;;;;26.70;12.13;;;-0.10;99.90;;;;;;4807757;29;20293;-77
2022/11/24 07:53:50;;;;;;;26.60;11.90;;;-0.10;99.90;;;;;;4792522;29;20301;-75
2022/11/24 07:56:17;;;;;;;33.77;12.30;;;-0.10;99.90;;;;;;4792173;29;20206;-79
2022/11/24 07:58:44;;;;;;;26.43;11.23;;;-0.10;99.90;;;;;;4792250;29;20239;-77
2022/11/24 08:01:18;;;;;;;30.93;12.30;;;-0.10;99.90;;;;;;4807651;29;20639;-80
2022/11/24 08:03:45;;;;;;;28.97;12.53;;;0.00;99.90;;;;;;4792027;29;20284;-79
2022/11/24 08:06:14;;;;;;;27.10;12.33;;;0.00;99.90;;;;;;4792404;29;20215;-79
2022/11/24 08:08:52;;;;;;;30.40;13.10;;;0.10;99.90;;;;;;4807192;29;20654;-79
2022/11/24 08:11:19;;;;;;;29.23;12.67;;;0.20;99.90;;;;;;4789296;29;20236;-79
2022/11/24 08:13:46;;;;;;;25.93;11.87;;;0.20;99.90;;;;;;4790871;29;20224;-78
2022/11/24 08:16:15;;;;;;;27.97;12.40;;;0.30;99.90;;;;;;4804048;29;20241;-80
2022/11/24 08:18:47;;;;;;;29.90;12.57;;;0.20;99.90;;;;;;4789111;30;20211;-79
2022/11/24 08:21:14;;;;;;;29.87;12.57;;;0.20;99.90;;;;;;4804296;29;20216;-79
2022/11/24 08:23:41;;;;;;;27.97;12.57;;;0.20;99.90;;;;;;4788946;30;20210;-79
2022/11/24 08:26:14;;;;;;;29.87;13.47;;;0.20;99.90;;;;;;4790084;29;20230;-79
2022/11/24 08:28:43;;;;;;;28.37;12.63;;;0.30;99.90;;;;;;4790242;29;20200;-79
2022/11/24 08:31:14;;;;;;;28.60;12.70;;;0.30;99.90;;;;;;4790082;29;20830;-79
2022/11/24 08:33:42;;;;;;;31.40;14.10;;;0.40;99.90;;;;;;4790234;29;20301;-81
2022/11/24 08:36:12;;;;;;;28.13;12.47;;;0.20;99.90;;;;;;4803773;29;20219;-81
2022/11/24 08:38:39;;;;;;;29.20;11.80;;;0.30;99.90;;;;;;4788795;29;20219;-81
2022/11/24 08:41:09;;;;;;;39.00;12.90;;;0.10;99.90;;;;;;4789211;29;20220;-80
2022/11/24 08:43:37;;;;;;;26.90;12.03;;;0.20;99.90;;;;;;4790227;29;20247;-80
2022/11/24 08:46:07;;;;;;;32.13;12.90;;;0.20;99.90;;;;;;4803959;29;20259;-78
2022/11/24 08:48:34;;;;;;;30.47;13.10;;;0.40;99.90;;;;;;4789070;29;20203;-82
2022/11/24 08:51:14;;;;;;;26.30;12.00;;;0.30;99.90;;;;;;4790139;29;20280;-79
2022/11/24 08:53:42;;;;;;;27.97;11.50;;;0.40;99.90;;;;;;4788315;30;20297;-80
2022/11/24 08:56:10;;;;;;;27.13;12.00;;;0.40;99.90;;;;;;4788898;29;20231;-81
2022/11/24 08:58:40;;;;;;;26.63;11.83;;;0.50;99.90;;;;;;4789156;29;20237;-81
2022/11/24 09:01:11;;;;;;;25.40;11.40;;;0.50;99.90;;;;;;4774244;30;20234;-79
2022/11/24 09:03:39;;;;;;;27.13;11.87;;;0.50;99.90;;;;;;4789722;29;20229;-81
2022/11/24 09:06:17;;;;;;;26.40;11.77;;;0.60;99.90;;;;;;4788975;29;20577;-81
2022/11/24 09:08:44;;;;;;;27.27;12.10;;;0.50;99.90;;;;;;4790304;29;20209;-79
2022/11/24 09:11:14;;;;;;;22.87;10.83;;;0.50;99.90;;;;;;4798036;29;20242;-81
2022/11/24 09:13:42;;;;;;;31.30;12.33;;;0.50;99.90;;;;;;4808256;29;20281;-79
2022/11/24 09:16:12;;;;;;;25.83;11.43;;;0.50;99.90;;;;;;4777245;29;20359;-81
2022/11/24 09:18:39;;;;;;;23.73;10.90;;;0.50;99.90;;;;;;4791649;29;20305;-79
2022/11/24 09:21:18;;;;;;;24.70;11.60;;;0.60;99.90;;;;;;4791653;29;20215;-79
2022/11/24 09:23:47;;;;;;;24.43;11.17;;;0.60;99.90;;;;;;4808220;29;20306;-82
2022/11/24 09:26:17;;;;;;;23.93;10.70;;;0.50;99.90;;;;;;4808392;29;20210;-82
2022/11/24 09:28:47;;;;;;;27.27;11.47;;;0.60;99.90;;;;;;4810043;29;20233;-81
2022/11/24 09:31:16;;;;;;;24.27;11.43;;;0.70;99.90;;;;;;4808216;29;20219;-80
2022/11/24 09:33:44;;;;;;;24.07;10.80;;;0.70;99.90;;;;;;4807561;29;20215;-81
2022/11/24 09:36:11;;;;;;;25.70;11.30;;;0.60;99.90;;;;;;4791488;29;20207;-83
2022/11/24 09:38:41;;;;;;;22.90;10.83;;;0.60;99.90;;;;;;4777099;29;20211;-81
2022/11/24 09:41:17;;;;;;;26.90;11.17;;;0.60;99.90;;;;;;4808005;29;20245;-83
2022/11/24 09:44:05;;;;;;;22.67;10.77;;;0.80;99.90;;;;;;4791998;29;20236;-82
2022/11/24 09:46:39;;;;;;;22.97;11.30;;;0.80;99.90;;;;;;4754557;30;20300;-81
2022/11/24 09:49:13;;;;;;;26.10;10.93;;;0.80;99.90;;;;;;4769407;30;20219;-80
2022/11/24 09:51:44;;;;;;;22.30;11.03;;;0.80;99.90;;;;;;4754218;30;20211;-80
2022/11/24 09:54:17;;;;;;;26.37;11.23;;;0.80;99.90;;;;;;4754819;30;20262;-81
2022/11/24 09:56:45;;;;;;;20.93;10.33;;;0.90;99.90;;;;;;4771187;30;20766;-81
2022/11/24 09:59:21;;;;;;;22.60;10.40;;;0.80;99.90;;;;;;4754008;30;20205;-81
2022/11/24 10:01:50;;;;;;;21.90;11.03;;;0.70;99.90;;;;;;4769342;30;20599;-81
2022/11/24 10:04:24;;;;;;;22.00;10.97;;;0.80;99.90;;;;;;4768309;30;20235;-81
2022/11/24 10:07:00;;;;;;;24.77;11.43;;;0.80;99.90;;;;;;4754538;30;20218;-82
2022/11/24 10:09:47;;;;;;;25.50;10.80;;;0.80;99.90;;;;;;4769286;30;20202;-79
2022/11/24 10:12:26;;;;;;;40.37;13.73;;;0.80;99.90;;;;;;4754285;30;20278;-80
2022/11/24 10:14:56;;;;;;;24.57;11.40;;;0.90;99.90;;;;;;4753845;30;20273;-80
2022/11/24 10:17:55;;;;;;;25.73;11.70;;;0.80;99.90;;;;;;4769018;30;20208;-80
2022/11/24 10:20:39;;;;;;;23.07;10.37;;;0.70;99.90;;;;;;4768724;30;20223;-80
2022/11/24 10:23:34;;;;;;;25.70;11.83;;;0.70;99.90;;;;;;4773402;30;20212;-80
2022/11/24 10:26:38;;;;;;;26.00;11.57;;;0.50;99.90;;;;;;4772582;30;20275;-78
2022/11/24 10:29:25;;;;;;;24.53;10.90;;;0.60;99.90;;;;;;4735883;30;20649;-79
2022/11/24 10:31:55;;;;;;;27.70;11.37;;;0.60;99.90;;;;;;4750394;30;20300;-80
2022/11/24 10:34:26;;;;;;;23.13;11.30;;;0.60;99.90;;;;;;4751945;30;20239;-80
2022/11/24 10:37:24;;;;;;;22.43;11.13;;;0.70;99.90;;;;;;4750544;30;20402;-79
2022/11/24 10:40:09;;;;;;;25.03;11.97;;;0.70;99.90;;;;;;4751000;30;20304;-78
2022/11/24 10:42:57;;;;;;;26.70;11.27;;;0.80;99.90;;;;;;4750326;30;20220;-76
2022/11/24 10:45:26;;;;;;;24.97;11.40;;;0.70;99.90;;;;;;4749916;30;20214;-81
2022/11/24 10:47:53;;;;;;;23.70;11.60;;;0.60;99.90;;;;;;4750559;30;20703;-80
2022/11/24 10:50:21;;;;;;;25.53;12.10;;;0.60;99.90;;;;;;4750384;30;20241;-81
2022/11/24 10:53:17;;;;;;;23.73;11.70;;;0.60;99.90;;;;;;4735912;30;20219;-78
2022/11/24 10:55:54;;;;;;;23.73;11.67;;;0.70;99.90;;;;;;4749294;30;20221;-81
2022/11/24 10:58:25;;;;;;;24.37;11.20;;;0.90;99.90;;;;;;4747223;30;20207;-80
2022/11/24 11:00:53;;;;;;;27.33;12.23;;;0.90;99.90;;;;;;4734513;30;20219;-79
2022/11/24 11:03:25;;;;;;;27.70;12.53;;;0.90;99.90;;;;;;4733133;30;20351;-80
2022/11/24 11:05:57;;;;;;;25.97;12.03;;;0.90;99.90;;;;;;4765723;29;20684;-78
2022/11/24 11:08:32;;;;;;;26.57;12.17;;;0.90;99.90;;;;;;4805951;29;20205;-80
2022/11/24 11:11:26;;;;;;;26.60;12.67;;;0.90;99.90;;;;;;4773216;29;20594;-81
2022/11/24 11:13:54;;;;;;;24.77;11.60;;;1.00;99.90;;;;;;4786416;29;20216;-77
2022/11/24 11:16:29;;;;;;;39.47;13.33;;;1.10;99.90;;;;;;4789670;29;20211;-78
2022/11/24 11:18:57;;;;;;;24.53;11.63;;;0.90;99.90;;;;;;4791883;30;20233;-78
2022/11/24 11:21:39;;;;;;;28.97;12.27;;;1.10;99.90;;;;;;4792969;29;20197;-79
2022/11/24 11:24:15;;;;;;;26.20;11.60;;;1.00;99.90;;;;;;4805888;29;20268;-78
2022/11/24 11:26:42;;;;;;;24.80;11.43;;;1.10;99.90;;;;;;4790135;29;20200;-80
2022/11/24 11:29:20;;;;;;;26.73;11.83;;;0.90;99.90;;;;;;4790355;29;20318;-80
2022/11/24 11:32:23;;;;;;;24.40;12.03;;;0.90;99.90;;;;;;4804980;29;20542;-79
2022/11/24 11:35:12;;;;;;;32.17;12.97;;;0.80;99.90;;;;;;4804624;29;20255;-78
2022/11/24 11:37:40;;;;;;;29.40;12.47;;;0.80;99.90;;;;;;4789796;30;20207;-79
2022/11/24 11:40:15;;;;;;;28.60;13.57;;;0.80;99.90;;;;;;4790939;29;20280;-80
2022/11/24 11:43:14;;;;;;;28.93;12.87;;;0.80;99.90;;;;;;4790022;29;20530;-78
2022/11/24 11:45:44;;;;;;;25.97;13.20;;;0.80;99.90;;;;;;4753161;30;20284;-77
2022/11/24 11:48:26;;;;;;;31.50;13.87;;;0.80;99.90;;;;;;4754910;30;20370;-81
2022/11/24 11:51:14;;;;;;;30.07;12.97;;;0.80;99.90;;;;;;4753517;30;20228;-80
2022/11/24 11:54:30;;;;;;;28.53;12.53;;;0.80;99.90;;;;;;4753245;30;20209;-79
2022/11/24 11:57:05;;;;;;;23.67;11.30;;;0.70;99.90;;;;;;4700302;30;20662;-78
2022/11/24 11:59:57;;;;;;;26.23;11.60;;;0.70;99.90;;;;;;4700523;30;20210;-79
2022/11/24 12:02:58;;;;;;;24.80;11.67;;;0.70;99.90;;;;;;4686055;30;20285;-76
2022/11/24 12:05:49;;;;;;;28.43;12.00;;;0.70;99.90;;;;;;4700358;30;20204;-80
2022/11/24 12:08:56;;;;;;;24.03;11.00;;;0.70;99.90;;;;;;4699796;30;20210;-80
2022/11/24 12:12:11;;;;;;;21.70;10.30;;;0.70;99.90;;;;;;4685911;30;20240;-82
2022/11/24 12:15:05;;;;;;;23.30;11.23;;;0.60;99.90;;;;;;4686283;30;20238;-80
2022/11/24 12:17:46;;;;;;;27.40;10.93;;;0.60;99.90;;;;;;4686494;30;20588;-81
2022/11/24 12:20:27;;;;;;;21.87;11.03;;;0.60;99.90;;;;;;4701043;30;20305;-80
2022/11/24 12:23:02;;;;;;;23.93;10.53;;;0.60;99.90;;;;;;4730168;30;20248;-88
2022/11/24 12:25:55;;;;;;;22.40;10.53;;;0.70;99.90;;;;;;4737965;30;20234;-80
2022/11/24 12:28:22;;;;;;;23.87;11.03;;;0.80;99.90;;;;;;4774278;30;20276;-78
2022/11/24 12:31:13;;;;;;;25.00;10.57;;;0.90;99.90;;;;;;4789247;30;20742;-80
2022/11/24 12:34:07;;;;;;;22.83;10.53;;;0.80;99.90;;;;;;4788955;29;20297;-78
2022/11/24 12:37:14;;;;;;;22.83;11.03;;;0.80;99.90;;;;;;4789083;29;20214;-80
2022/11/24 12:40:02;;;;;;;23.97;10.70;;;0.90;99.90;;;;;;4789543;29;20689;-77
2022/11/24 12:42:59;;;;;;;25.13;10.20;;;0.90;99.90;;;;;;4789930;30;20262;-81
2022/11/24 12:45:48;;;;;;;30.67;11.00;;;0.90;99.90;;;;;;4804391;29;20315;-79
2022/11/24 12:48:25;;;;;;;23.90;10.33;;;0.90;99.90;;;;;;4790650;29;20206;-81
2022/11/24 12:50:54;;;;;;;20.33;9.83;;;0.80;99.90;;;;;;4789051;29;20306;-77
2022/11/24 12:53:26;;;;;;;20.37;10.20;;;0.80;99.90;;;;;;4774098;30;20217;-79
2022/11/24 12:55:55;;;;;;;21.60;10.30;;;0.90;99.90;;;;;;4788822;30;20642;-81
2022/11/24 12:58:55;;;;;;;22.73;10.57;;;0.80;99.90;;;;;;4790164;29;20227;-80
2022/11/24 13:01:49;;;;;;;26.33;11.03;;;0.80;99.90;;;;;;4771628;29;20706;-81